Back to Top

Language: 

My Weather Underground Personal Weather Station Historical Data with Graphs...

Delerius Weather Station Historical Data
Daily Summary for July 7, 2017 Units:  Metric    English   Both
« Previous Day
Next Day »
Daily Weekly Monthly Yearly Custom
  High: Low: Average:
Temperature: 22.1 °C 14.7 °C 18.2 °C
Dew Point: 16.3 °C 13.1 °C 14.7 °C
Humidity: 92 % 65 % 80 %
Wind Speed: 14.5 km/h 1.6 km/h 9.8 km/h
Wind Gust: 25.7 km/h - -
Wind:- - WNW
Pressure: 1016.8 hPa 1013.4 hPa -
Precipitation: 0 mm    
Historical Graphs
 
 
Tabular Data for July 7, 2017
Time Temperature Dew Point Pressure Wind Wind Speed Wind Gust Humidity Rainfall Rate (Hourly) solar Conditions
00:04 18.4 °C 14.5 °C 1014.1 hPa WNW 9.7 km/h 16.1 km/h 78 % 0 mm 0 W/m2
00:09 18.3 °C 14.4 °C 1014.1 hPa WNW 11.3 km/h 17.7 km/h 78 % 0 mm 0 W/m2
00:14 18.3 °C 14.6 °C 1014.1 hPa WNW 9.7 km/h 17.7 km/h 79 % 0 mm 0 W/m2
00:19 18.2 °C 14.5 °C 1014.1 hPa WNW 9.7 km/h 17.7 km/h 79 % 0 mm 0 W/m2
00:24 18.2 °C 14.7 °C 1014.1 hPa WNW 9.7 km/h 17.7 km/h 80 % 0 mm 0 W/m2
00:25 18.2 °C 14.7 °C 1014.1 hPa WNW 11.3 km/h 17.7 km/h 80 % 0 mm 0 W/m2
00:30 18.1 °C 14.6 °C 1014.1 hPa WNW 9.7 km/h 16.1 km/h 80 % 0 mm 0 W/m2
00:35 18.1 °C 14.8 °C 1014.1 hPa WNW 9.7 km/h 14.5 km/h 81 % 0 mm 0 W/m2
00:40 18 °C 14.7 °C 1014.1 hPa WNW 9.7 km/h 14.5 km/h 81 % 0 mm 0 W/m2
00:45 17.9 °C 14.6 °C 1014.1 hPa West 8 km/h 14.5 km/h 81 % 0 mm 0 W/m2
00:50 17.8 °C 14.7 °C 1014.1 hPa West 6.4 km/h 9.7 km/h 82 % 0 mm 0 W/m2
00:55 17.7 °C 14.6 °C 1014.1 hPa West 6.4 km/h 12.9 km/h 82 % 0 mm 0 W/m2
01:00 17.6 °C 14.7 °C 1014.1 hPa West 8 km/h 12.9 km/h 83 % 0 mm 0 W/m2
01:05 17.4 °C 14.5 °C 1013.8 hPa WNW 8 km/h 12.9 km/h 83 % 0 mm 0 W/m2
01:10 17.3 °C 14.4 °C 1013.8 hPa West 9.7 km/h 14.5 km/h 83 % 0 mm 0 W/m2
01:15 17.2 °C 14.4 °C 1013.8 hPa West 9.7 km/h 14.5 km/h 84 % 0 mm 0 W/m2
01:20 17.2 °C 14.4 °C 1013.8 hPa WNW 9.7 km/h 14.5 km/h 84 % 0 mm 0 W/m2
01:25 17.1 °C 14.4 °C 1013.8 hPa WNW 9.7 km/h 14.5 km/h 84 % 0 mm 0 W/m2
01:30 16.9 °C 14.3 °C 1013.8 hPa WNW 9.7 km/h 12.9 km/h 85 % 0 mm 0 W/m2
01:40 16.6 °C 14.1 °C 1013.8 hPa WNW 9.7 km/h 14.5 km/h 85 % 0 mm 0 W/m2
01:45 16.5 °C 14.2 °C 1013.8 hPa WNW 9.7 km/h 14.5 km/h 86 % 0 mm 0 W/m2
01:50 16.4 °C 14.1 °C 1013.8 hPa WNW 9.7 km/h 16.1 km/h 86 % 0 mm 0 W/m2
01:55 16.3 °C 13.9 °C 1013.8 hPa WNW 11.3 km/h 19.3 km/h 86 % 0 mm 0 W/m2
02:00 16.3 °C 13.9 °C 1013.4 hPa WNW 11.3 km/h 19.3 km/h 86 % 0 mm 0 W/m2
02:05 16.3 °C 13.8 °C 1013.4 hPa WNW 12.9 km/h 20.9 km/h 85 % 0 mm 0 W/m2
02:10 16.3 °C 13.8 °C 1013.4 hPa WNW 12.9 km/h 20.9 km/h 85 % 0 mm 0 W/m2
02:15 16.3 °C 13.8 °C 1013.4 hPa WNW 11.3 km/h 17.7 km/h 85 % 0 mm 0 W/m2
02:20 16.3 °C 13.8 °C 1013.4 hPa West 11.3 km/h 16.1 km/h 85 % 0 mm 0 W/m2
02:25 16.2 °C 13.7 °C 1013.4 hPa West 9.7 km/h 14.5 km/h 85 % 0 mm 0 W/m2
02:30 16.2 °C 13.7 °C 1013.4 hPa West 8 km/h 14.5 km/h 85 % 0 mm 0 W/m2
02:35 16.2 °C 13.7 °C 1013.4 hPa WNW 8 km/h 14.5 km/h 85 % 0 mm 0 W/m2
02:40 16.2 °C 13.8 °C 1013.8 hPa WNW 6.4 km/h 12.9 km/h 86 % 0 mm 0 W/m2
02:45 16.2 °C 13.8 °C 1013.4 hPa WNW 8 km/h 16.1 km/h 86 % 0 mm 0 W/m2
02:50 16.2 °C 13.8 °C 1013.4 hPa WNW 9.7 km/h 17.7 km/h 86 % 0 mm 0 W/m2
02:55 16.1 °C 13.8 °C 1013.4 hPa WNW 11.3 km/h 17.7 km/h 86 % 0 mm 0 W/m2
03:00 16.1 °C 13.8 °C 1013.4 hPa WNW 9.7 km/h 17.7 km/h 86 % 0 mm 0 W/m2
03:05 16 °C 13.7 °C 1013.4 hPa WNW 8 km/h 12.9 km/h 86 % 0 mm 0 W/m2
03:10 15.9 °C 13.6 °C 1013.4 hPa WNW 8 km/h 14.5 km/h 86 % 0 mm 0 W/m2
03:15 15.9 °C 13.6 °C 1013.4 hPa WNW 8 km/h 14.5 km/h 86 % 0 mm 0 W/m2
03:21 15.8 °C 13.7 °C 1013.4 hPa WNW 9.7 km/h 12.9 km/h 87 % 0 mm 0 W/m2
03:26 15.7 °C 13.6 °C 1013.4 hPa WNW 8 km/h 12.9 km/h 87 % 0 mm 0 W/m2
03:31 15.6 °C 13.4 °C 1013.4 hPa WNW 8 km/h 12.9 km/h 87 % 0 mm 0 W/m2
03:36 15.5 °C 13.3 °C 1013.4 hPa WNW 8 km/h 12.9 km/h 87 % 0 mm 0 W/m2
03:41 15.4 °C 13.2 °C 1013.4 hPa WNW 6.4 km/h 12.9 km/h 87 % 0 mm 0 W/m2
03:46 15.3 °C 13.3 °C 1013.4 hPa WNW 6.4 km/h 12.9 km/h 88 % 0 mm 0 W/m2
03:51 15.3 °C 13.3 °C 1013.4 hPa WNW 6.4 km/h 8 km/h 88 % 0 mm 0 W/m2
03:56 15.2 °C 13.2 °C 1013.8 hPa WNW 6.4 km/h 12.9 km/h 88 % 0 mm 0 W/m2
04:01 15.1 °C 13.1 °C 1013.4 hPa WNW 6.4 km/h 12.9 km/h 88 % 0 mm 0 W/m2
04:06 15.1 °C 13.1 °C 1013.4 hPa WNW 6.4 km/h 11.3 km/h 88 % 0 mm 0 W/m2
04:11 15 °C 13.2 °C 1013.4 hPa West 6.4 km/h 11.3 km/h 89 % 0 mm 0 W/m2
04:16 14.9 °C 13.1 °C 1013.4 hPa West 6.4 km/h 11.3 km/h 89 % 0 mm 0 W/m2
04:17 15 °C 13.2 °C 1013.4 hPa West 6.4 km/h 11.3 km/h 89 % 0 mm 0 W/m2
04:22 14.9 °C 13.1 °C 1013.8 hPa West 8 km/h 12.9 km/h 89 % 0 mm 0 W/m2
04:27 14.9 °C 13.1 °C 1013.8 hPa West 8 km/h 12.9 km/h 89 % 0 mm 0 W/m2
04:32 14.8 °C 13.2 °C 1013.8 hPa West 6.4 km/h 14.5 km/h 90 % 0 mm 0 W/m2
04:37 14.8 °C 13.2 °C 1013.8 hPa West 6.4 km/h 14.5 km/h 90 % 0 mm 5 W/m2
04:42 14.8 °C 13.2 °C 1013.8 hPa West 6.4 km/h 11.3 km/h 90 % 0 mm 7 W/m2
04:47 14.8 °C 13.2 °C 1013.8 hPa West 6.4 km/h 11.3 km/h 90 % 0 mm 7 W/m2
04:52 14.8 °C 13.3 °C 1013.8 hPa West 8 km/h 12.9 km/h 91 % 0 mm 9 W/m2
04:57 14.8 °C 13.3 °C 1013.8 hPa WNW 8 km/h 12.9 km/h 91 % 0 mm 11 W/m2
05:02 14.7 °C 13.1 °C 1013.8 hPa WNW 6.4 km/h 11.3 km/h 90 % 0 mm 14 W/m2
05:07 14.7 °C 13.2 °C 1013.8 hPa WNW 6.4 km/h 12.9 km/h 91 % 0 mm 18 W/m2
05:12 14.8 °C 13.3 °C 1014.1 hPa WNW 8 km/h 14.5 km/h 91 % 0 mm 19 W/m2
05:17 14.8 °C 13.3 °C 1013.8 hPa West 9.7 km/h 16.1 km/h 91 % 0 mm 23 W/m2
05:22 14.9 °C 13.4 °C 1013.8 hPa West 9.7 km/h 16.1 km/h 91 % 0 mm 28 W/m2
05:27 14.9 °C 13.4 °C 1013.8 hPa West 8 km/h 16.1 km/h 91 % 0 mm 40 W/m2
05:32 15 °C 13.7 °C 1014.1 hPa West 9.7 km/h 12.9 km/h 92 % 0 mm 40 W/m2
05:37 15.1 °C 13.8 °C 1014.1 hPa West 9.7 km/h 14.5 km/h 92 % 0 mm 49 W/m2
05:42 15.3 °C 14 °C 1014.1 hPa West 9.7 km/h 14.5 km/h 92 % 0 mm 54 W/m2
05:47 15.4 °C 14.1 °C 1014.1 hPa West 9.7 km/h 17.7 km/h 92 % 0 mm 58 W/m2
05:52 15.6 °C 14.1 °C 1014.1 hPa West 11.3 km/h 17.7 km/h 91 % 0 mm 60 W/m2
05:57 15.7 °C 14.2 °C 1014.1 hPa West 9.7 km/h 17.7 km/h 91 % 0 mm 56 W/m2
06:02 15.8 °C 14.3 °C 1014.1 hPa WNW 11.3 km/h 20.9 km/h 91 % 0 mm 62 W/m2
06:07 15.8 °C 14.3 °C 1014.1 hPa WNW 9.7 km/h 20.9 km/h 91 % 0 mm 62 W/m2
06:12 15.9 °C 14.3 °C 1014.1 hPa West 9.7 km/h 19.3 km/h 90 % 0 mm 67 W/m2
06:17 16.1 °C 14.4 °C 1014.1 hPa West 9.7 km/h 19.3 km/h 90 % 0 mm 69 W/m2
06:22 16.2 °C 14.6 °C 1014.1 hPa WNW 9.7 km/h 16.1 km/h 90 % 0 mm 74 W/m2
06:27 16.2 °C 14.6 °C 1014.1 hPa WNW 9.7 km/h 17.7 km/h 90 % 0 mm 86 W/m2
06:32 16.3 °C 14.7 °C 1014.1 hPa West 11.3 km/h 17.7 km/h 90 % 0 mm 88 W/m2
06:37 16.3 °C 14.5 °C 1014.1 hPa West 11.3 km/h 16.1 km/h 89 % 0 mm 97 W/m2
06:42 16.4 °C 14.6 °C 1014.1 hPa West 11.3 km/h 17.7 km/h 89 % 0 mm 104 W/m2
06:47 16.5 °C 14.7 °C 1014.1 hPa West 11.3 km/h 17.7 km/h 89 % 0 mm 109 W/m2
06:52 16.6 °C 14.8 °C 1014.1 hPa West 11.3 km/h 16.1 km/h 89 % 0 mm 111 W/m2
06:57 16.7 °C 14.7 °C 1014.4 hPa West 11.3 km/h 17.7 km/h 88 % 0 mm 105 W/m2
07:02 16.8 °C 14.8 °C 1014.4 hPa West 11.3 km/h 19.3 km/h 88 % 0 mm 123 W/m2
07:07 16.9 °C 14.7 °C 1014.4 hPa WNW 12.9 km/h 22.5 km/h 87 % 0 mm 123 W/m2
07:12 17 °C 14.7 °C 1014.4 hPa WNW 14.5 km/h 24.1 km/h 86 % 0 mm 134 W/m2
07:17 17.1 °C 14.7 °C 1014.4 hPa WNW 12.9 km/h 24.1 km/h 86 % 0 mm 156 W/m2
07:22 17.2 °C 14.8 °C 1014.4 hPa WNW 11.3 km/h 19.3 km/h 86 % 0 mm 246 W/m2
07:27 17.3 °C 14.8 °C 1014.4 hPa WNW 11.3 km/h 19.3 km/h 85 % 0 mm 206 W/m2
07:32 17.5 °C 14.9 °C 1014.4 hPa West 9.7 km/h 17.7 km/h 85 % 0 mm 121 W/m2
07:37 17.6 °C 14.9 °C 1014.4 hPa WNW 14.5 km/h 24.1 km/h 84 % 0 mm 232 W/m2
07:42 17.8 °C 15.1 °C 1014.4 hPa WNW 14.5 km/h 24.1 km/h 84 % 0 mm 234 W/m2
07:47 17.9 °C 14.9 °C 1014.8 hPa WNW 14.5 km/h 22.5 km/h 83 % 0 mm 179 W/m2
07:52 18.1 °C 15.2 °C 1014.8 hPa WNW 14.5 km/h 22.5 km/h 83 % 0 mm 258 W/m2
07:57 18.3 °C 15.2 °C 1014.8 hPa WNW 12.9 km/h 20.9 km/h 82 % 0 mm 302 W/m2
08:02 18.4 °C 14.9 °C 1014.8 hPa WNW 12.9 km/h 24.1 km/h 80 % 0 mm 151 W/m2
08:07 18.4 °C 14.9 °C 1014.8 hPa WNW 14.5 km/h 24.1 km/h 80 % 0 mm 186 W/m2
08:12 18.5 °C 15 °C 1014.8 hPa West 14.5 km/h 24.1 km/h 80 % 0 mm 545 W/m2
08:17 18.7 °C 15 °C 1014.8 hPa West 14.5 km/h 22.5 km/h 79 % 0 mm 570 W/m2
08:22 19.1 °C 15.6 °C 1015.1 hPa West 12.9 km/h 22.5 km/h 80 % 0 mm 570 W/m2
08:27 19.4 °C 15.3 °C 1015.1 hPa WNW 12.9 km/h 20.9 km/h 77 % 0 mm 144 W/m2
08:32 19.3 °C 14.9 °C 1015.1 hPa WNW 11.3 km/h 20.9 km/h 76 % 0 mm 135 W/m2
08:37 19.1 °C 14.9 °C 1015.1 hPa West 9.7 km/h 16.1 km/h 77 % 0 mm 128 W/m2
08:42 19 °C 15.1 °C 1014.8 hPa WNW 8 km/h 14.5 km/h 78 % 0 mm 304 W/m2
08:47 19.1 °C 15.2 °C 1014.8 hPa West 6.4 km/h 11.3 km/h 78 % 0 mm 338 W/m2
08:52 19.3 °C 15.4 °C 1014.8 hPa West 4.8 km/h 9.7 km/h 78 % 0 mm 638 W/m2
08:57 19.6 °C 15.4 °C 1015.1 hPa WSW 6.4 km/h 11.3 km/h 77 % 0 mm 385 W/m2
09:02 19.9 °C 15.6 °C 1015.1 hPa West 8 km/h 12.9 km/h 76 % 0 mm 248 W/m2
09:08 20 °C 15.2 °C 1014.8 hPa WNW 8 km/h 12.9 km/h 74 % 0 mm 207 W/m2
09:13 20 °C 15.2 °C 1014.8 hPa West 8 km/h 14.5 km/h 74 % 0 mm 234 W/m2
09:18 20.1 °C 15.3 °C 1014.8 hPa West 8 km/h 14.5 km/h 74 % 0 mm 503 W/m2
09:23 20.3 °C 15.5 °C 1014.8 hPa West 8 km/h 14.5 km/h 74 % 0 mm 647 W/m2
09:28 20.4 °C 15.4 °C 1014.8 hPa WSW 9.7 km/h 14.5 km/h 73 % 0 mm 700 W/m2
09:33 20.7 °C 15.3 °C 1014.8 hPa West 11.3 km/h 20.9 km/h 71 % 0 mm 408 W/m2
09:38 20.8 °C 15.1 °C 1014.8 hPa West 14.5 km/h 24.1 km/h 70 % 0 mm 724 W/m2
09:43 21.1 °C 15.2 °C 1014.8 hPa West 12.9 km/h 24.1 km/h 69 % 0 mm 691 W/m2
09:48 21.4 °C 15.5 °C 1014.8 hPa WNW 12.9 km/h 20.9 km/h 69 % 0 mm 721 W/m2
09:53 21.8 °C 15.4 °C 1014.8 hPa WNW 12.9 km/h 20.9 km/h 67 % 0 mm 858 W/m2
09:58 22.1 °C 15.2 °C 1014.8 hPa WNW 12.9 km/h 24.1 km/h 65 % 0 mm 327 W/m2
10:03 21.9 °C 15.3 °C 1014.8 hPa West 12.9 km/h 24.1 km/h 66 % 0 mm 294 W/m2
10:08 21.6 °C 14.7 °C 1014.8 hPa West 14.5 km/h 24.1 km/h 65 % 0 mm 274 W/m2
10:13 21.4 °C 14.8 °C 1014.8 hPa West 14.5 km/h 24.1 km/h 66 % 0 mm 313 W/m2
10:18 21.3 °C 14.9 °C 1014.8 hPa West 14.5 km/h 24.1 km/h 67 % 0 mm 214 W/m2
10:23 21.2 °C 15.1 °C 1014.8 hPa West 12.9 km/h 20.9 km/h 68 % 0 mm 209 W/m2
10:28 20.9 °C 14.6 °C 1015.1 hPa West 12.9 km/h 20.9 km/h 67 % 0 mm 139 W/m2
10:33 20.7 °C 14.8 °C 1015.1 hPa West 12.9 km/h 22.5 km/h 69 % 0 mm 135 W/m2
10:38 20.5 °C 14.8 °C 1014.8 hPa West 12.9 km/h 22.5 km/h 70 % 0 mm 225 W/m2
10:43 20.5 °C 14.8 °C 1014.8 hPa West 11.3 km/h 17.7 km/h 70 % 0 mm 199 W/m2
10:44 20.5 °C 14.8 °C 1015.1 hPa West 9.7 km/h 17.7 km/h 70 % 0 mm 221 W/m2
10:49 20.5 °C 14.8 °C 1015.1 hPa West 9.7 km/h 17.7 km/h 70 % 0 mm 181 W/m2
10:54 20.5 °C 14.6 °C 1015.1 hPa West 11.3 km/h 17.7 km/h 69 % 0 mm 257 W/m2
10:59 20.5 °C 14.8 °C 1014.8 hPa West 11.3 km/h 19.3 km/h 70 % 0 mm 290 W/m2
11:04 20.6 °C 14.9 °C 1014.8 hPa West 11.3 km/h 19.3 km/h 70 % 0 mm 311 W/m2
11:09 20.6 °C 14.9 °C 1015.1 hPa West 11.3 km/h 17.7 km/h 70 % 0 mm 274 W/m2
11:14 20.4 °C 14.9 °C 1015.1 hPa WSW 11.3 km/h 17.7 km/h 71 % 0 mm 239 W/m2
11:19 20.4 °C 14.9 °C 1015.1 hPa WSW 11.3 km/h 19.3 km/h 71 % 0 mm 186 W/m2
11:24 20.3 °C 14.9 °C 1015.1 hPa WSW 12.9 km/h 22.5 km/h 71 % 0 mm 178 W/m2
11:29 20.2 °C 14.8 °C 1015.1 hPa WSW 12.9 km/h 22.5 km/h 71 % 0 mm 239 W/m2
11:34 20.2 °C 14.8 °C 1015.1 hPa West 12.9 km/h 25.7 km/h 71 % 0 mm 200 W/m2
11:39 20.2 °C 15 °C 1015.5 hPa West 12.9 km/h 25.7 km/h 72 % 0 mm 127 W/m2
11:44 20.2 °C 15 °C 1015.1 hPa West 11.3 km/h 19.3 km/h 72 % 0 mm 172 W/m2
11:49 20.2 °C 15 °C 1015.1 hPa West 9.7 km/h 19.3 km/h 72 % 0 mm 276 W/m2
11:54 20.2 °C 15.2 °C 1015.1 hPa WSW 9.7 km/h 17.7 km/h 73 % 0 mm 225 W/m2
11:59 20.3 °C 15.1 °C 1015.1 hPa West 11.3 km/h 19.3 km/h 72 % 0 mm 199 W/m2
12:04 20.3 °C 14.9 °C 1015.1 hPa West 12.9 km/h 19.3 km/h 71 % 0 mm 192 W/m2
12:09 20.4 °C 14.7 °C 1015.1 hPa West 12.9 km/h 19.3 km/h 70 % 0 mm 163 W/m2
12:14 20.4 °C 14.9 °C 1015.1 hPa West 11.3 km/h 19.3 km/h 71 % 0 mm 144 W/m2
12:19 20.4 °C 14.9 °C 1015.1 hPa West 11.3 km/h 20.9 km/h 71 % 0 mm 209 W/m2
12:24 20.4 °C 14.9 °C 1015.1 hPa West 12.9 km/h 20.9 km/h 71 % 0 mm 218 W/m2
12:29 20.5 °C 15.1 °C 1015.1 hPa West 11.3 km/h 17.7 km/h 71 % 0 mm 193 W/m2
12:34 20.6 °C 15.2 °C 1015.1 hPa West 9.7 km/h 17.7 km/h 71 % 0 mm 202 W/m2
12:39 20.7 °C 15.3 °C 1015.1 hPa West 9.7 km/h 20.9 km/h 71 % 0 mm 244 W/m2
12:44 20.7 °C 14.6 °C 1015.1 hPa West 12.9 km/h 20.9 km/h 68 % 0 mm 272 W/m2
12:49 20.8 °C 14.9 °C 1015.1 hPa West 12.9 km/h 20.9 km/h 69 % 0 mm 230 W/m2
12:54 20.9 °C 15.2 °C 1015.1 hPa West 11.3 km/h 20.9 km/h 70 % 0 mm 399 W/m2
12:58 21 °C 15.3 °C 1015.1 hPa West 12.9 km/h 20.9 km/h 70 % 0 mm 311 W/m2
13:03 21.2 °C 15.1 °C 1015.1 hPa West 12.9 km/h 20.9 km/h 68 % 0 mm 401 W/m2
13:08 21.3 °C 15.4 °C 1015.1 hPa West 12.9 km/h 20.9 km/h 69 % 0 mm 621 W/m2
13:13 21.5 °C 15.3 °C 1015.1 hPa West 12.9 km/h 20.9 km/h 68 % 0 mm 346 W/m2
13:18 21.5 °C 15.1 °C 1015.1 hPa West 12.9 km/h 22.5 km/h 67 % 0 mm 274 W/m2
13:23 21.6 °C 15.2 °C 1015.1 hPa West 12.9 km/h 22.5 km/h 67 % 0 mm 241 W/m2
13:28 21.6 °C 15.2 °C 1015.1 hPa West 11.3 km/h 17.7 km/h 67 % 0 mm 294 W/m2
13:34 21.5 °C 15.1 °C 1015.1 hPa West 12.9 km/h 24.1 km/h 67 % 0 mm 272 W/m2
13:39 21.5 °C 15.1 °C 1015.1 hPa WNW 12.9 km/h 24.1 km/h 67 % 0 mm 278 W/m2
13:44 21.4 °C 14.8 °C 1015.1 hPa West 12.9 km/h 22.5 km/h 66 % 0 mm 248 W/m2
13:49 21.3 °C 15.2 °C 1015.1 hPa West 12.9 km/h 22.5 km/h 68 % 0 mm 313 W/m2
13:54 21.3 °C 15.2 °C 1015.1 hPa West 12.9 km/h 20.9 km/h 68 % 0 mm 264 W/m2
13:59 21.2 °C 15.1 °C 1015.1 hPa West 12.9 km/h 20.9 km/h 68 % 0 mm 211 W/m2
14:04 21.2 °C 15.1 °C 1015.1 hPa West 11.3 km/h 20.9 km/h 68 % 0 mm 197 W/m2
14:09 21.1 °C 14.9 °C 1015.1 hPa West 11.3 km/h 17.7 km/h 68 % 0 mm 183 W/m2
14:14 21 °C 15.1 °C 1015.1 hPa West 11.3 km/h 17.7 km/h 69 % 0 mm 139 W/m2
14:19 20.9 °C 15 °C 1015.1 hPa West 9.7 km/h 16.1 km/h 69 % 0 mm 199 W/m2
14:24 20.9 °C 15.2 °C 1015.1 hPa West 9.7 km/h 14.5 km/h 70 % 0 mm 264 W/m2
14:29 20.9 °C 15.2 °C 1015.1 hPa West 9.7 km/h 17.7 km/h 70 % 0 mm 167 W/m2
14:34 21 °C 15.1 °C 1015.1 hPa West 11.3 km/h 20.9 km/h 69 % 0 mm 105 W/m2
14:39 20.9 °C 15.2 °C 1015.1 hPa West 11.3 km/h 20.9 km/h 70 % 0 mm 90 W/m2
14:44 20.9 °C 15.2 °C 1015.1 hPa West 11.3 km/h 17.7 km/h 70 % 0 mm 81 W/m2
14:49 20.8 °C 15.1 °C 1015.1 hPa West 9.7 km/h 17.7 km/h 70 % 0 mm 42 W/m2
14:54 20.7 °C 15.3 °C 1015.1 hPa West 9.7 km/h 17.7 km/h 71 % 0 mm 46 W/m2
14:59 20.6 °C 15.2 °C 1015.5 hPa West 8 km/h 14.5 km/h 71 % 0 mm 35 W/m2
15:04 20.5 °C 15.3 °C 1015.5 hPa West 9.7 km/h 20.9 km/h 72 % 0 mm 40 W/m2
15:09 20.4 °C 15.2 °C 1015.5 hPa West 11.3 km/h 20.9 km/h 72 % 0 mm 62 W/m2
15:14 20.3 °C 15.3 °C 1015.1 hPa West 11.3 km/h 20.9 km/h 73 % 0 mm 190 W/m2
15:19 20.4 °C 15.4 °C 1015.1 hPa West 9.7 km/h 17.7 km/h 73 % 0 mm 257 W/m2
15:24 20.5 °C 15.5 °C 1015.1 hPa West 9.7 km/h 17.7 km/h 73 % 0 mm 204 W/m2
15:29 20.6 °C 15.4 °C 1015.1 hPa WNW 9.7 km/h 17.7 km/h 72 % 0 mm 134 W/m2
15:34 20.7 °C 15.4 °C 1015.1 hPa WNW 9.7 km/h 19.3 km/h 72 % 0 mm 139 W/m2
15:39 20.7 °C 15.7 °C 1015.1 hPa NW 8 km/h 19.3 km/h 73 % 0 mm 65 W/m2
15:44 20.7 °C 15.4 °C 1015.1 hPa NW 8 km/h 17.7 km/h 72 % 0 mm 63 W/m2
15:49 20.5 °C 15.5 °C 1015.1 hPa NW 8 km/h 17.7 km/h 73 % 0 mm 63 W/m2
15:54 20.3 °C 15.3 °C 1015.1 hPa NW 8 km/h 16.1 km/h 73 % 0 mm 60 W/m2
16:00 20.2 °C 15.4 °C 1015.1 hPa WNW 8 km/h 16.1 km/h 74 % 0 mm 56 W/m2
16:05 20.1 °C 15.3 °C 1015.1 hPa WNW 9.7 km/h 16.1 km/h 74 % 0 mm 47 W/m2
16:10 19.9 °C 15.1 °C 1015.1 hPa WNW 9.7 km/h 16.1 km/h 74 % 0 mm 42 W/m2
16:15 19.8 °C 15.2 °C 1015.1 hPa WNW 9.7 km/h 16.1 km/h 75 % 0 mm 49 W/m2
16:20 19.8 °C 15.4 °C 1015.1 hPa WNW 9.7 km/h 14.5 km/h 76 % 0 mm 86 W/m2
16:25 19.7 °C 15.9 °C 1015.1 hPa West 9.7 km/h 20.9 km/h 79 % 0 mm 200 W/m2
16:30 19.5 °C 16.3 °C 1015.1 hPa WNW 12.9 km/h 20.9 km/h 82 % 0 mm 229 W/m2
16:35 19.2 °C 16.2 °C 1015.5 hPa WNW 11.3 km/h 19.3 km/h 83 % 0 mm 120 W/m2
16:40 19 °C 16.2 °C 1015.1 hPa WNW 11.3 km/h 19.3 km/h 84 % 0 mm 102 W/m2
16:45 18.7 °C 15.9 °C 1015.1 hPa WNW 12.9 km/h 20.9 km/h 84 % 0 mm 98 W/m2
16:50 18.5 °C 15.9 °C 1015.1 hPa WNW 12.9 km/h 20.9 km/h 85 % 0 mm 118 W/m2
16:55 18.4 °C 16 °C 1015.1 hPa WNW 9.7 km/h 19.3 km/h 86 % 0 mm 174 W/m2
17:00 18.3 °C 15.9 °C 1015.1 hPa West 9.7 km/h 16.1 km/h 86 % 0 mm 178 W/m2
17:05 18.3 °C 15.9 °C 1015.1 hPa West 11.3 km/h 17.7 km/h 86 % 0 mm 144 W/m2
17:10 18.3 °C 15.9 °C 1015.5 hPa WNW 11.3 km/h 17.7 km/h 86 % 0 mm 83 W/m2
17:16 18.3 °C 15.6 °C 1015.1 hPa WNW 11.3 km/h 20.9 km/h 84 % 0 mm 84 W/m2
17:21 18.3 °C 15.6 °C 1015.1 hPa WNW 12.9 km/h 20.9 km/h 84 % 0 mm 100 W/m2
17:26 18.2 °C 15.3 °C 1015.1 hPa WNW 12.9 km/h 20.9 km/h 83 % 0 mm 76 W/m2
17:31 18.2 °C 15.3 °C 1015.1 hPa West 12.9 km/h 20.9 km/h 83 % 0 mm 156 W/m2
17:36 18.2 °C 15.3 °C 1015.1 hPa West 12.9 km/h 22.5 km/h 83 % 0 mm 174 W/m2
17:41 18.2 °C 15.3 °C 1015.1 hPa West 11.3 km/h 22.5 km/h 83 % 0 mm 104 W/m2
17:46 18.2 °C 15.3 °C 1015.1 hPa WSW 12.9 km/h 19.3 km/h 83 % 0 mm 91 W/m2
17:51 18.1 °C 15.2 °C 1015.1 hPa West 12.9 km/h 19.3 km/h 83 % 0 mm 93 W/m2
17:56 18.2 °C 15.4 °C 1015.5 hPa West 11.3 km/h 19.3 km/h 84 % 0 mm 86 W/m2
18:01 18.2 °C 15.3 °C 1015.1 hPa West 11.3 km/h 17.7 km/h 83 % 0 mm 121 W/m2
18:06 18.2 °C 15.3 °C 1015.1 hPa West 12.9 km/h 20.9 km/h 83 % 0 mm 116 W/m2
18:11 18.2 °C 15.4 °C 1015.1 hPa West 9.7 km/h 20.9 km/h 84 % 0 mm 84 W/m2
18:16 18.2 °C 15.4 °C 1015.1 hPa West 8 km/h 16.1 km/h 84 % 0 mm 109 W/m2
18:23 18.2 °C 15.3 °C 1015.5 hPa West 8 km/h 11.3 km/h 83 % 0 mm 105 W/m2
18:28 18.3 °C 15.4 °C 1015.5 hPa West 8 km/h 14.5 km/h 83 % 0 mm 109 W/m2
18:33 18.3 °C 15.4 °C 1015.5 hPa West 8 km/h 16.1 km/h 83 % 0 mm 97 W/m2
18:38 18.3 °C 15.4 °C 1015.1 hPa West 9.7 km/h 16.1 km/h 83 % 0 mm 95 W/m2
18:43 18.4 °C 15.4 °C 1015.1 hPa West 8 km/h 16.1 km/h 83 % 0 mm 84 W/m2
18:48 18.4 °C 15.4 °C 1015.1 hPa West 6.4 km/h 14.5 km/h 83 % 0 mm 69 W/m2
18:53 18.4 °C 15.4 °C 1015.1 hPa West 6.4 km/h 12.9 km/h 83 % 0 mm 51 W/m2
18:58 18.4 °C 15.4 °C 1015.1 hPa WNW 3.2 km/h 12.9 km/h 83 % 0 mm 51 W/m2
19:03 18.4 °C 15.3 °C 1015.1 hPa WNW 3.2 km/h 12.9 km/h 82 % 0 mm 40 W/m2
19:08 18.4 °C 15.3 °C 1015.1 hPa WNW 4.8 km/h 12.9 km/h 82 % 0 mm 44 W/m2
19:13 18.4 °C 15.3 °C 1015.1 hPa WNW 6.4 km/h 11.3 km/h 82 % 0 mm 39 W/m2
19:18 18.4 °C 15.3 °C 1015.1 hPa WNW 4.8 km/h 11.3 km/h 82 % 0 mm 35 W/m2
19:23 18.3 °C 15.2 °C 1015.1 hPa WNW 4.8 km/h 12.9 km/h 82 % 0 mm 42 W/m2
19:28 18.3 °C 15.2 °C 1015.1 hPa West 4.8 km/h 12.9 km/h 82 % 0 mm 44 W/m2
19:33 18.3 °C 15.2 °C 1015.1 hPa West 1.6 km/h 8 km/h 82 % 0 mm 32 W/m2
19:38 18.3 °C 15.4 °C 1015.1 hPa West 1.6 km/h 8 km/h 83 % 0 mm 19 W/m2
19:43 18.3 °C 15.4 °C 1015.1 hPa West 1.6 km/h 8 km/h 83 % 0 mm 12 W/m2
19:49 18.2 °C 15.3 °C 1015.1 hPa West 3.2 km/h 8 km/h 83 % 0 mm 7 W/m2
19:54 18.2 °C 15.3 °C 1015.1 hPa WNW 4.8 km/h 9.7 km/h 83 % 0 mm 7 W/m2
19:59 18.2 °C 15.3 °C 1015.1 hPa NW 3.2 km/h 9.7 km/h 83 % 0 mm 5 W/m2
20:04 18.2 °C 15.3 °C 1015.1 hPa NW 1.6 km/h 8 km/h 83 % 0 mm 7 W/m2
20:09 18.1 °C 15.2 °C 1015.1 hPa NW 1.6 km/h 8 km/h 83 % 0 mm 7 W/m2
20:14 18.1 °C 15.3 °C 1015.1 hPa NW 1.6 km/h 6.4 km/h 84 % 0 mm 7 W/m2
20:19 18.1 °C 15.3 °C 1015.5 hPa NW 3.2 km/h 11.3 km/h 84 % 0 mm 7 W/m2
20:24 18.1 °C 15.3 °C 1015.5 hPa NW 6.4 km/h 14.5 km/h 84 % 0 mm 25 W/m2
20:29 18 °C 15.1 °C 1015.5 hPa NW 8 km/h 16.1 km/h 83 % 0 mm 14 W/m2
20:34 17.9 °C 14.9 °C 1015.5 hPa WNW 9.7 km/h 16.1 km/h 83 % 0 mm 23 W/m2
20:39 17.9 °C 14.9 °C 1015.8 hPa WNW 6.4 km/h 12.9 km/h 83 % 0 mm 42 W/m2
20:44 17.9 °C 14.9 °C 1015.8 hPa WNW 6.4 km/h 12.9 km/h 83 % 0 mm 60 W/m2
20:49 17.9 °C 14.9 °C 1015.8 hPa WNW 8 km/h 14.5 km/h 83 % 0 mm 47 W/m2
20:54 17.9 °C 14.9 °C 1015.8 hPa WNW 8 km/h 14.5 km/h 83 % 0 mm 46 W/m2
20:59 17.9 °C 14.9 °C 1015.8 hPa WNW 8 km/h 14.5 km/h 83 % 0 mm 28 W/m2
21:04 17.9 °C 14.8 °C 1015.8 hPa WNW 8 km/h 14.5 km/h 82 % 0 mm 16 W/m2
21:09 17.9 °C 14.9 °C 1015.8 hPa WNW 6.4 km/h 12.9 km/h 83 % 0 mm 11 W/m2
21:14 17.9 °C 14.9 °C 1015.8 hPa WNW 6.4 km/h 12.9 km/h 83 % 0 mm 7 W/m2
21:19 17.9 °C 14.9 °C 1015.8 hPa WNW 6.4 km/h 12.9 km/h 83 % 0 mm 5 W/m2
21:24 17.8 °C 14.7 °C 1016.1 hPa West 9.7 km/h 20.9 km/h 82 % 0 mm 5 W/m2
21:29 17.6 °C 14.7 °C 1016.1 hPa West 12.9 km/h 25.7 km/h 83 % 0 mm 0 W/m2
21:34 17.4 °C 14.5 °C 1016.1 hPa WNW 14.5 km/h 25.7 km/h 83 % 0 mm 0 W/m2
21:39 17.3 °C 14.4 °C 1016.1 hPa West 12.9 km/h 22.5 km/h 83 % 0 mm 0 W/m2
21:44 17.3 °C 14.4 °C 1016.1 hPa West 12.9 km/h 20.9 km/h 83 % 0 mm 0 W/m2
21:49 17.2 °C 14.4 °C 1016.1 hPa West 11.3 km/h 19.3 km/h 84 % 0 mm 0 W/m2
21:54 17.2 °C 14.4 °C 1016.1 hPa West 9.7 km/h 17.7 km/h 84 % 0 mm 0 W/m2
21:59 17.1 °C 14.4 °C 1016.1 hPa West 9.7 km/h 17.7 km/h 84 % 0 mm 0 W/m2
22:05 17.1 °C 14.4 °C 1016.1 hPa West 9.7 km/h 17.7 km/h 84 % 0 mm 0 W/m2
22:10 17.1 °C 14.4 °C 1016.1 hPa West 9.7 km/h 14.5 km/h 84 % 0 mm 0 W/m2
22:14 17 °C 14.3 °C 1016.1 hPa West 9.7 km/h 14.5 km/h 84 % 0 mm 0 W/m2
22:19 17 °C 14.3 °C 1016.5 hPa WNW 9.7 km/h 16.1 km/h 84 % 0 mm 0 W/m2
22:24 16.9 °C 14 °C 1016.1 hPa WNW 11.3 km/h 19.3 km/h 83 % 0 mm 0 W/m2
22:30 16.9 °C 14.2 °C 1016.5 hPa WNW 11.3 km/h 19.3 km/h 84 % 0 mm 0 W/m2
22:35 16.8 °C 13.9 °C 1016.5 hPa WNW 11.3 km/h 19.3 km/h 83 % 0 mm 0 W/m2
22:39 16.8 °C 14.1 °C 1016.5 hPa WNW 9.7 km/h 19.3 km/h 84 % 0 mm 0 W/m2
22:45 16.8 °C 14.1 °C 1016.5 hPa WNW 9.7 km/h 19.3 km/h 84 % 0 mm 0 W/m2
22:50 16.8 °C 14.1 °C 1016.5 hPa WNW 9.7 km/h 19.3 km/h 84 % 0 mm 0 W/m2
22:55 16.7 °C 14 °C 1016.5 hPa WNW 9.7 km/h 17.7 km/h 84 % 0 mm 0 W/m2
23:00 16.7 °C 14 °C 1016.5 hPa WNW 9.7 km/h 17.7 km/h 84 % 0 mm 0 W/m2
23:05 16.6 °C 14.1 °C 1016.5 hPa WNW 9.7 km/h 20.9 km/h 85 % 0 mm 0 W/m2
23:10 16.5 °C 13.9 °C 1016.5 hPa WNW 11.3 km/h 20.9 km/h 85 % 0 mm 0 W/m2
23:15 16.4 °C 13.9 °C 1016.5 hPa WNW 11.3 km/h 19.3 km/h 85 % 0 mm 0 W/m2
23:20 16.4 °C 14.1 °C 1016.5 hPa WNW 9.7 km/h 19.3 km/h 86 % 0 mm 0 W/m2
23:25 16.3 °C 14.1 °C 1016.8 hPa WNW 6.4 km/h 14.5 km/h 87 % 0 mm 0 W/m2
23:30 16.3 °C 14.1 °C 1016.8 hPa WNW 8 km/h 14.5 km/h 87 % 0 mm 0 W/m2
23:35 16.2 °C 14.1 °C 1016.8 hPa WNW 9.7 km/h 17.7 km/h 87 % 0 mm 0 W/m2
23:40 16.2 °C 13.8 °C 1016.8 hPa WNW 11.3 km/h 17.7 km/h 86 % 0 mm 0 W/m2
23:45 16.1 °C 13.8 °C 1016.8 hPa WNW 11.3 km/h 17.7 km/h 86 % 0 mm 0 W/m2
23:50 16.1 °C 13.9 °C 1016.8 hPa WNW 9.7 km/h 17.7 km/h 87 % 0 mm 0 W/m2
23:55 16.1 °C 13.9 °C 1016.8 hPa WNW 9.7 km/h 17.7 km/h 87 % 0 mm 0 W/m2
Delerius-Weather
Compliments of Weather Underground - 2.25 mb

Data updates at regular intervals.